sensor_id;sensor_type;location;lat;lon;timestamp;pressure;altitude;pressure_sealevel;temperature;humidity
11190;BME280;5651;50.926;4.718;2023-03-04T00:01:08;102574.56;;;5.23;72.59
11190;BME280;5651;50.926;4.718;2023-03-04T00:03:33;102574.63;;;5.25;71.46
11190;BME280;5651;50.926;4.718;2023-03-04T00:05:59;102572.19;;;5.28;70.69
11190;BME280;5651;50.926;4.718;2023-03-04T00:08:25;102566.06;;;5.26;72.09
11190;BME280;5651;50.926;4.718;2023-03-04T00:10:51;102573.69;;;5.23;73.01
11190;BME280;5651;50.926;4.718;2023-03-04T00:13:16;102564.09;;;5.20;73.24
11190;BME280;5651;50.926;4.718;2023-03-04T00:15:44;102574.63;;;5.25;70.94
11190;BME280;5651;50.926;4.718;2023-03-04T00:18:10;102569.38;;;5.23;71.43
11190;BME280;5651;50.926;4.718;2023-03-04T00:20:36;102567.56;;;5.21;72.97
11190;BME280;5651;50.926;4.718;2023-03-04T00:23:02;102570.06;;;5.19;73.78
11190;BME280;5651;50.926;4.718;2023-03-04T00:25:27;102575.25;;;5.19;72.97
11190;BME280;5651;50.926;4.718;2023-03-04T00:27:54;102569.28;;;5.20;73.64
11190;BME280;5651;50.926;4.718;2023-03-04T00:30:19;102570.13;;;5.21;73.67
11190;BME280;5651;50.926;4.718;2023-03-04T00:32:45;102569.31;;;5.22;72.56
11190;BME280;5651;50.926;4.718;2023-03-04T00:35:11;102565.03;;;5.22;71.81
11190;BME280;5651;50.926;4.718;2023-03-04T00:37:38;102563.34;;;5.23;71.65
11190;BME280;5651;50.926;4.718;2023-03-04T00:40:04;102564.09;;;5.20;72.80
11190;BME280;5651;50.926;4.718;2023-03-04T00:42:30;102568.38;;;5.20;72.66
11190;BME280;5651;50.926;4.718;2023-03-04T00:44:56;102563.13;;;5.18;72.12
11190;BME280;5651;50.926;4.718;2023-03-04T00:47:21;102564.00;;;5.19;72.01
11190;BME280;5651;50.926;4.718;2023-03-04T00:49:47;102561.31;;;5.16;73.07
11190;BME280;5651;50.926;4.718;2023-03-04T00:52:13;102565.66;;;5.17;71.71
11190;BME280;5651;50.926;4.718;2023-03-04T00:54:39;102565.56;;;5.15;72.67
11190;BME280;5651;50.926;4.718;2023-03-04T00:57:04;102564.63;;;5.13;73.37
11190;BME280;5651;50.926;4.718;2023-03-04T00:59:31;102569.06;;;5.16;71.84
11190;BME280;5651;50.926;4.718;2023-03-04T01:01:56;102569.81;;;5.13;73.69
11190;BME280;5651;50.926;4.718;2023-03-04T01:04:22;102574.13;;;5.14;71.96
11190;BME280;5651;50.926;4.718;2023-03-04T01:06:48;102568.16;;;5.15;72.69
11190;BME280;5651;50.926;4.718;2023-03-04T01:09:14;102563.88;;;5.16;72.29
11190;BME280;5651;50.926;4.718;2023-03-04T01:11:40;102556.94;;;5.15;71.79
11190;BME280;5651;50.926;4.718;2023-03-04T01:14:06;102568.09;;;5.14;72.10
11190;BME280;5651;50.926;4.718;2023-03-04T01:16:32;102566.31;;;5.13;71.44
11190;BME280;5651;50.926;4.718;2023-03-04T01:18:57;102560.28;;;5.12;72.55
11190;BME280;5651;50.926;4.718;2023-03-04T01:21:23;102557.59;;;5.11;71.18
11190;BME280;5651;50.926;4.718;2023-03-04T01:23:49;102559.31;;;5.10;70.20
11190;BME280;5651;50.926;4.718;2023-03-04T01:26:14;102559.25;;;5.08;70.66
11190;BME280;5651;50.926;4.718;2023-03-04T01:28:40;102561.84;;;5.08;70.13
11190;BME280;5651;50.926;4.718;2023-03-04T01:31:06;102556.56;;;5.07;70.55
11190;BME280;5651;50.926;4.718;2023-03-04T01:33:32;102554.75;;;5.04;70.47
11190;BME280;5651;50.926;4.718;2023-03-04T01:35:58;102556.44;;;5.04;70.48
11190;BME280;5651;50.926;4.718;2023-03-04T01:38:23;102555.56;;;5.03;69.81
11190;BME280;5651;50.926;4.718;2023-03-04T01:40:49;102548.56;;;5.01;70.42
11190;BME280;5651;50.926;4.718;2023-03-04T01:43:27;102545.16;;;5.02;70.29
11190;BME280;5651;50.926;4.718;2023-03-04T01:45:54;102534.66;;;4.99;70.88
11190;BME280;5651;50.926;4.718;2023-03-04T01:48:24;102536.38;;;4.98;70.21
11190;BME280;5651;50.926;4.718;2023-03-04T01:50:51;102531.22;;;4.98;71.32
11190;BME280;5651;50.926;4.718;2023-03-04T01:53:21;102530.34;;;4.98;71.00
11190;BME280;5651;50.926;4.718;2023-03-04T01:55:47;102522.38;;;4.93;72.23
11190;BME280;5651;50.926;4.718;2023-03-04T01:58:13;102519.84;;;4.95;70.81
11190;BME280;5651;50.926;4.718;2023-03-04T02:00:40;102516.41;;;4.94;70.71
11190;BME280;5651;50.926;4.718;2023-03-04T02:03:11;102517.28;;;4.95;71.19
11190;BME280;5651;50.926;4.718;2023-03-04T02:05:45;102517.22;;;4.93;72.41
11190;BME280;5651;50.926;4.718;2023-03-04T02:08:11;102517.22;;;4.93;72.51
11190;BME280;5651;50.926;4.718;2023-03-04T02:10:39;102512.06;;;4.93;72.39
11190;BME280;5651;50.926;4.718;2023-03-04T02:13:06;102513.72;;;4.92;71.01
11190;BME280;5651;50.926;4.718;2023-03-04T02:15:32;102506.88;;;4.93;71.21
11190;BME280;5651;50.926;4.718;2023-03-04T02:17:57;102499.13;;;4.93;71.14
11190;BME280;5651;50.926;4.718;2023-03-04T02:20:44;102495.66;;;4.92;71.67
11190;BME280;5651;50.926;4.718;2023-03-04T02:28:32;102489.63;;;4.92;72.18
11190;BME280;5651;50.926;4.718;2023-03-04T02:30:58;102489.56;;;4.90;72.54
11190;BME280;5651;50.926;4.718;2023-03-04T02:33:23;102484.28;;;4.89;72.73
11190;BME280;5651;50.926;4.718;2023-03-04T02:35:49;102483.47;;;4.90;71.69
11190;BME280;5651;50.926;4.718;2023-03-04T02:38:15;102475.63;;;4.87;71.69
11190;BME280;5651;50.926;4.718;2023-03-04T02:40:42;102474.78;;;4.88;73.76
11190;BME280;5651;50.926;4.718;2023-03-04T02:43:11;102471.38;;;4.89;71.60
11190;BME280;5651;50.926;4.718;2023-03-04T02:45:44;102472.28;;;4.89;71.45
11190;BME280;5651;50.926;4.718;2023-03-04T02:48:11;102466.22;;;4.89;73.54
11190;BME280;5651;50.926;4.718;2023-03-04T02:50:46;102461.03;;;4.89;73.06
11190;BME280;5651;50.926;4.718;2023-03-04T02:53:12;102463.72;;;4.90;72.94
11190;BME280;5651;50.926;4.718;2023-03-04T02:55:40;102463.72;;;4.90;71.69
11190;BME280;5651;50.926;4.718;2023-03-04T02:58:06;102465.41;;;4.90;71.85
11190;BME280;5651;50.926;4.718;2023-03-04T03:00:32;102459.38;;;4.89;71.57
11190;BME280;5651;50.926;4.718;2023-03-04T03:02:58;102460.25;;;4.90;70.83
11190;BME280;5651;50.926;4.718;2023-03-04T03:05:26;102462.88;;;4.91;71.84
11190;BME280;5651;50.926;4.718;2023-03-04T03:07:53;102458.63;;;4.92;72.10
11190;BME280;5651;50.926;4.718;2023-03-04T03:10:19;102455.22;;;4.93;70.58
11190;BME280;5651;50.926;4.718;2023-03-04T03:12:44;102460.38;;;4.93;71.30
11190;BME280;5651;50.926;4.718;2023-03-04T03:15:11;102456.91;;;4.92;71.56
11190;BME280;5651;50.926;4.718;2023-03-04T03:17:36;102457.94;;;4.96;70.96
11190;BME280;5651;50.926;4.718;2023-03-04T03:20:06;102455.44;;;4.98;70.58
11190;BME280;5651;50.926;4.718;2023-03-04T03:22:32;102461.53;;;5.00;71.79
11190;BME280;5651;50.926;4.718;2023-03-04T03:24:57;102460.66;;;4.99;71.82
11190;BME280;5651;50.926;4.718;2023-03-04T03:27:23;102463.25;;;4.99;72.83
11190;BME280;5651;50.926;4.718;2023-03-04T03:29:49;102457.13;;;4.97;72.26
11190;BME280;5651;50.926;4.718;2023-03-04T03:32:15;102460.72;;;5.01;73.11
11190;BME280;5651;50.926;4.718;2023-03-04T03:34:40;102462.44;;;5.00;72.91
11190;BME280;5651;50.926;4.718;2023-03-04T03:37:06;102459.75;;;4.99;74.93
11190;BME280;5651;50.926;4.718;2023-03-04T03:39:32;102459.75;;;4.99;73.05
11190;BME280;5651;50.926;4.718;2023-03-04T03:41:58;102456.31;;;4.98;72.27
11190;BME280;5651;50.926;4.718;2023-03-04T03:44:23;102455.44;;;4.98;74.93
11190;BME280;5651;50.926;4.718;2023-03-04T03:46:49;102458.94;;;5.00;75.76
11190;BME280;5651;50.926;4.718;2023-03-04T03:49:15;102454.59;;;4.99;76.48
11190;BME280;5651;50.926;4.718;2023-03-04T03:51:41;102459.03;;;5.01;75.50
11190;BME280;5651;50.926;4.718;2023-03-04T03:54:08;102462.53;;;5.03;75.95
11190;BME280;5651;50.926;4.718;2023-03-04T03:56:33;102461.72;;;5.04;73.79
11190;BME280;5651;50.926;4.718;2023-03-04T03:58:59;102466.09;;;5.05;73.27
11190;BME280;5651;50.926;4.718;2023-03-04T04:01:25;102462.63;;;5.05;73.83
11190;BME280;5651;50.926;4.718;2023-03-04T04:03:51;102469.50;;;5.04;73.52
11190;BME280;5651;50.926;4.718;2023-03-04T04:06:17;102476.44;;;5.05;73.72
11190;BME280;5651;50.926;4.718;2023-03-04T04:08:43;102474.66;;;5.04;73.11
11190;BME280;5651;50.926;4.718;2023-03-04T04:11:10;102468.47;;;5.01;72.81
11190;BME280;5651;50.926;4.718;2023-03-04T04:13:36;102470.28;;;5.03;73.20
11190;BME280;5651;50.926;4.718;2023-03-04T04:16:02;102468.53;;;5.02;73.59
11190;BME280;5651;50.926;4.718;2023-03-04T04:18:28;102471.09;;;5.02;72.85
11190;BME280;5651;50.926;4.718;2023-03-04T04:20:54;102471.09;;;5.02;73.26
11190;BME280;5651;50.926;4.718;2023-03-04T04:23:20;102471.84;;;5.00;73.20
11190;BME280;5651;50.926;4.718;2023-03-04T04:25:45;102468.47;;;5.01;73.92
11190;BME280;5651;50.926;4.718;2023-03-04T04:28:12;102471.31;;;5.07;72.40
11190;BME280;5651;50.926;4.718;2023-03-04T04:30:38;102465.22;;;5.05;76.04
11190;BME280;5651;50.926;4.718;2023-03-04T04:33:04;102467.59;;;5.00;76.91
11190;BME280;5651;50.926;4.718;2023-03-04T04:35:32;102465.94;;;5.02;75.40
11190;BME280;5651;50.926;4.718;2023-03-04T04:37:58;102458.00;;;4.98;79.34
11190;BME280;5651;50.926;4.718;2023-03-04T04:40:24;102465.00;;;5.00;77.97
11190;BME280;5651;50.926;4.718;2023-03-04T04:42:49;102459.03;;;5.01;77.67
11190;BME280;5651;50.926;4.718;2023-03-04T04:45:15;102467.66;;;5.02;78.43
11190;BME280;5651;50.926;4.718;2023-03-04T04:47:41;102469.44;;;5.03;78.96
11190;BME280;5651;50.926;4.718;2023-03-04T04:50:07;102469.63;;;5.07;77.55
11190;BME280;5651;50.926;4.718;2023-03-04T04:52:33;102469.56;;;5.06;79.14
11190;BME280;5651;50.926;4.718;2023-03-04T04:54:59;102473.09;;;5.08;78.49
11190;BME280;5651;50.926;4.718;2023-03-04T04:57:25;102470.59;;;5.10;78.52
11190;BME280;5651;50.926;4.718;2023-03-04T04:59:51;102465.50;;;5.11;77.95
11190;BME280;5651;50.926;4.718;2023-03-04T05:02:16;102472.34;;;5.11;77.94
11190;BME280;5651;50.926;4.718;2023-03-04T05:04:42;102476.69;;;5.12;78.94
11190;BME280;5651;50.926;4.718;2023-03-04T05:07:08;102477.66;;;5.14;75.78
11190;BME280;5651;50.926;4.718;2023-03-04T05:09:34;102481.06;;;5.13;79.76
11190;BME280;5651;50.926;4.718;2023-03-04T05:12:00;102481.94;;;5.13;78.61
11190;BME280;5651;50.926;4.718;2023-03-04T05:14:25;102482.00;;;5.15;78.21
11190;BME280;5651;50.926;4.718;2023-03-04T05:16:51;102480.25;;;5.14;78.76
11190;BME280;5651;50.926;4.718;2023-03-04T05:19:18;102479.47;;;5.16;78.59
11190;BME280;5651;50.926;4.718;2023-03-04T05:21:44;102472.53;;;5.15;78.82
11190;BME280;5651;50.926;4.718;2023-03-04T05:24:09;102476.97;;;5.18;77.27
11190;BME280;5651;50.926;4.718;2023-03-04T05:26:35;102484.72;;;5.18;77.50
11190;BME280;5651;50.926;4.718;2023-03-04T05:29:02;102474.47;;;5.19;77.13
11190;BME280;5651;50.926;4.718;2023-03-04T05:31:27;102470.97;;;5.19;77.17
11190;BME280;5651;50.926;4.718;2023-03-04T05:33:53;102478.72;;;5.19;76.17
11190;BME280;5651;50.926;4.718;2023-03-04T05:36:19;102468.34;;;5.17;76.24
11190;BME280;5651;50.926;4.718;2023-03-04T05:38:45;102465.81;;;5.19;75.90
11190;BME280;5651;50.926;4.718;2023-03-04T05:41:10;102465.75;;;5.17;75.43
11190;BME280;5651;50.926;4.718;2023-03-04T05:43:36;102469.09;;;5.15;74.27
11190;BME280;5651;50.926;4.718;2023-03-04T05:46:08;102474.25;;;5.15;75.42
11190;BME280;5651;50.926;4.718;2023-03-04T05:48:37;102478.47;;;5.13;75.44
11190;BME280;5651;50.926;4.718;2023-03-04T05:51:03;102473.19;;;5.10;75.37
11190;BME280;5651;50.926;4.718;2023-03-04T05:53:29;102474.81;;;5.07;76.71
11190;BME280;5651;50.926;4.718;2023-03-04T05:55:55;102482.63;;;5.09;76.32
11190;BME280;5651;50.926;4.718;2023-03-04T05:58:23;102476.47;;;5.07;76.79
11190;BME280;5651;50.926;4.718;2023-03-04T06:00:49;102471.31;;;5.07;76.21
11190;BME280;5651;50.926;4.718;2023-03-04T06:03:16;102480.78;;;5.06;77.15
11190;BME280;5651;50.926;4.718;2023-03-04T06:05:42;102472.16;;;5.06;75.77
11190;BME280;5651;50.926;4.718;2023-03-04T06:08:10;102479.06;;;5.07;75.02
11190;BME280;5651;50.926;4.718;2023-03-04T06:10:36;102477.31;;;5.06;75.76
11190;BME280;5651;50.926;4.718;2023-03-04T06:13:02;102469.50;;;5.04;77.15
11190;BME280;5651;50.926;4.718;2023-03-04T06:15:27;102475.47;;;5.03;76.30
11190;BME280;5651;50.926;4.718;2023-03-04T06:17:53;102475.47;;;5.03;76.40
11190;BME280;5651;50.926;4.718;2023-03-04T06:20:19;102480.72;;;5.05;76.05
11190;BME280;5651;50.926;4.718;2023-03-04T06:22:45;102484.13;;;5.04;76.10
11190;BME280;5651;50.926;4.718;2023-03-04T06:25:11;102487.50;;;5.03;76.05
11190;BME280;5651;50.926;4.718;2023-03-04T06:27:36;102484.03;;;5.02;75.77
11190;BME280;5651;50.926;4.718;2023-03-04T06:30:03;102492.63;;;5.01;76.16
11190;BME280;5651;50.926;4.718;2023-03-04T06:32:29;102494.34;;;5.02;75.82
11190;BME280;5651;50.926;4.718;2023-03-04T06:34:55;102503.00;;;5.03;74.75
11190;BME280;5651;50.926;4.718;2023-03-04T06:37:21;102496.94;;;5.02;75.05
11190;BME280;5651;50.926;4.718;2023-03-04T06:39:47;102497.84;;;5.03;74.93
11190;BME280;5651;50.926;4.718;2023-03-04T06:42:13;102499.53;;;5.02;75.05
11190;BME280;5651;50.926;4.718;2023-03-04T06:44:39;102501.25;;;5.02;76.27
11190;BME280;5651;50.926;4.718;2023-03-04T06:47:06;102507.22;;;5.01;79.23
11190;BME280;5651;50.926;4.718;2023-03-04T06:49:32;102509.84;;;5.02;77.26
11190;BME280;5651;50.926;4.718;2023-03-04T06:51:57;102511.72;;;5.05;77.92
11190;BME280;5651;50.926;4.718;2023-03-04T06:54:23;102508.66;;;5.14;75.10
11190;BME280;5651;50.926;4.718;2023-03-04T06:56:49;102517.28;;;5.14;75.82
11190;BME280;5651;50.926;4.718;2023-03-04T06:59:14;102509.53;;;5.14;75.95
11190;BME280;5651;50.926;4.718;2023-03-04T07:01:40;102509.63;;;5.16;74.01
11190;BME280;5651;50.926;4.718;2023-03-04T07:04:06;102515.72;;;5.18;76.39
11190;BME280;5651;50.926;4.718;2023-03-04T07:06:32;102523.47;;;5.18;77.35
11190;BME280;5651;50.926;4.718;2023-03-04T07:08:58;102522.66;;;5.19;78.62
11190;BME280;5651;50.926;4.718;2023-03-04T07:11:24;102520.16;;;5.20;78.14
11190;BME280;5651;50.926;4.718;2023-03-04T07:13:50;102518.50;;;5.22;78.58
11190;BME280;5651;50.926;4.718;2023-03-04T07:16:18;102522.88;;;5.23;77.85
11190;BME280;5651;50.926;4.718;2023-03-04T07:18:45;102520.44;;;5.27;77.74
11190;BME280;5651;50.926;4.718;2023-03-04T07:21:12;102522.25;;;5.29;76.74
11190;BME280;5651;50.926;4.718;2023-03-04T07:23:39;102530.16;;;5.32;77.35
11190;BME280;5651;50.926;4.718;2023-03-04T07:26:04;102523.34;;;5.34;75.66
11190;BME280;5651;50.926;4.718;2023-03-04T07:28:30;102534.78;;;5.39;76.19
11190;BME280;5651;50.926;4.718;2023-03-04T07:30:56;102528.78;;;5.40;76.41
11190;BME280;5651;50.926;4.718;2023-03-04T07:33:22;102523.75;;;5.44;77.10
11190;BME280;5651;50.926;4.718;2023-03-04T07:35:47;102525.53;;;5.45;76.80
11190;BME280;5651;50.926;4.718;2023-03-04T07:38:13;102529.94;;;5.47;77.86
11190;BME280;5651;50.926;4.718;2023-03-04T07:40:39;102530.97;;;5.51;77.60
11190;BME280;5651;50.926;4.718;2023-03-04T07:43:05;102526.00;;;5.55;76.90
11190;BME280;5651;50.926;4.718;2023-03-04T07:45:30;102533.25;;;5.64;74.58
11190;BME280;5651;50.926;4.718;2023-03-04T07:47:57;102540.16;;;5.64;78.72
11190;BME280;5651;50.926;4.718;2023-03-04T07:50:23;102543.00;;;5.70;76.79
11190;BME280;5651;50.926;4.718;2023-03-04T07:52:49;102541.28;;;5.70;77.70
11190;BME280;5651;50.926;4.718;2023-03-04T07:55:17;102533.72;;;5.75;76.59
11190;BME280;5651;50.926;4.718;2023-03-04T07:57:45;102537.31;;;5.79;76.08
11190;BME280;5651;50.926;4.718;2023-03-04T08:00:14;102541.75;;;5.81;75.02
11190;BME280;5651;50.926;4.718;2023-03-04T08:02:40;102547.09;;;5.86;76.26
11190;BME280;5651;50.926;4.718;2023-03-04T08:05:07;102542.06;;;5.89;75.78
11190;BME280;5651;50.926;4.718;2023-03-04T08:07:33;102555.06;;;5.91;75.66
11190;BME280;5651;50.926;4.718;2023-03-04T08:09:59;102549.03;;;5.90;77.81
11190;BME280;5651;50.926;4.718;2023-03-04T08:12:25;102558.56;;;5.91;80.53
11190;BME280;5651;50.926;4.718;2023-03-04T08:14:51;102559.91;;;6.02;75.66
11190;BME280;5651;50.926;4.718;2023-03-04T08:17:17;102564.28;;;6.03;78.09
11190;BME280;5651;50.926;4.718;2023-03-04T08:19:43;102571.03;;;6.00;79.32
11190;BME280;5651;50.926;4.718;2023-03-04T08:22:09;102573.66;;;6.01;78.79
11190;BME280;5651;50.926;4.718;2023-03-04T08:24:35;102577.00;;;5.99;80.56
11190;BME280;5651;50.926;4.718;2023-03-04T08:27:01;102581.56;;;6.05;79.10
11190;BME280;5651;50.926;4.718;2023-03-04T08:29:27;102575.44;;;6.02;81.74
11190;BME280;5651;50.926;4.718;2023-03-04T08:31:53;102573.81;;;6.05;82.34
11190;BME280;5651;50.926;4.718;2023-03-04T08:34:22;102579.94;;;6.07;81.84
11190;BME280;5651;50.926;4.718;2023-03-04T08:36:48;102578.47;;;6.13;80.18
11190;BME280;5651;50.926;4.718;2023-03-04T08:39:16;102576.91;;;6.17;81.01
11190;BME280;5651;50.926;4.718;2023-03-04T08:41:43;102578.66;;;6.18;83.25
11190;BME280;5651;50.926;4.718;2023-03-04T08:44:08;102570.53;;;6.30;80.11
11190;BME280;5651;50.926;4.718;2023-03-04T08:46:36;102564.84;;;6.39;80.92
11190;BME280;5651;50.926;4.718;2023-03-04T08:49:03;102567.03;;;6.50;79.16
11190;BME280;5651;50.926;4.718;2023-03-04T08:51:29;102578.53;;;6.57;79.50
11190;BME280;5651;50.926;4.718;2023-03-04T08:53:55;102578.59;;;6.59;80.84
11190;BME280;5651;50.926;4.718;2023-03-04T08:56:20;102571.91;;;6.64;79.87
11190;BME280;5651;50.926;4.718;2023-03-04T08:58:46;102575.81;;;6.54;82.07
11190;BME280;5651;50.926;4.718;2023-03-04T09:01:13;102570.75;;;6.57;82.77
11190;BME280;5651;50.926;4.718;2023-03-04T09:03:40;102572.72;;;6.63;82.60
11190;BME280;5651;50.926;4.718;2023-03-04T09:06:07;102575.75;;;6.74;81.79
11190;BME280;5651;50.926;4.718;2023-03-04T09:08:34;102564.31;;;6.91;81.41
11190;BME280;5651;50.926;4.718;2023-03-04T09:11:00;102569.94;;;7.02;82.71
11190;BME280;5651;50.926;4.718;2023-03-04T09:13:28;102565.19;;;7.14;83.31
11190;BME280;5651;50.926;4.718;2023-03-04T09:15:54;102569.78;;;7.22;84.22
11190;BME280;5651;50.926;4.718;2023-03-04T09:18:21;102578.72;;;7.30;84.98
11190;BME280;5651;50.926;4.718;2023-03-04T09:20:48;102576.78;;;7.24;84.21
11190;BME280;5651;50.926;4.718;2023-03-04T09:23:14;102578.69;;;7.28;84.91
11190;BME280;5651;50.926;4.718;2023-03-04T09:25:43;102574.66;;;7.14;85.74
11190;BME280;5651;50.926;4.718;2023-03-04T09:28:09;102573.50;;;7.28;85.38
11190;BME280;5651;50.926;4.718;2023-03-04T09:30:36;102579.63;;;7.08;85.35
11190;BME280;5651;50.926;4.718;2023-03-04T09:33:02;102577.09;;;7.09;85.17
11190;BME280;5651;50.926;4.718;2023-03-04T09:35:28;102572.78;;;7.10;85.44
11190;BME280;5651;50.926;4.718;2023-03-04T09:37:57;102568.91;;;7.21;85.25
11190;BME280;5651;50.926;4.718;2023-03-04T09:40:27;102564.00;;;7.29;87.01
11190;BME280;5651;50.926;4.718;2023-03-04T09:42:58;102570.94;;;7.30;87.12
11190;BME280;5651;50.926;4.718;2023-03-04T09:45:42;102557.78;;;7.48;83.43
11190;BME280;5651;50.926;4.718;2023-03-04T09:48:17;102558.41;;;7.42;84.03
11190;BME280;5651;50.926;4.718;2023-03-04T09:53:28;102554.22;;;7.46;83.21
11190;BME280;5651;50.926;4.718;2023-03-04T09:55:59;102563.78;;;7.47;81.37
11190;BME280;5651;50.926;4.718;2023-03-04T09:59:04;102554.66;;;7.34;82.34
11190;BME280;5651;50.926;4.718;2023-03-04T10:01:38;102556.94;;;7.25;82.84
11190;BME280;5651;50.926;4.718;2023-03-04T10:06:49;102554.88;;;7.16;84.46
11190;BME280;5651;50.926;4.718;2023-03-04T10:09:27;102555.03;;;7.21;84.05
11190;BME280;5651;50.926;4.718;2023-03-04T10:12:05;102553.91;;;7.14;84.81
11190;BME280;5651;50.926;4.718;2023-03-04T10:17:44;102564.41;;;7.17;85.69
11190;BME280;5651;50.926;4.718;2023-03-04T10:20:18;102562.88;;;7.22;85.99
11190;BME280;5651;50.926;4.718;2023-03-04T10:22:47;102562.81;;;7.21;85.96
11190;BME280;5651;50.926;4.718;2023-03-04T10:25:37;102559.47;;;7.23;85.43
11190;BME280;5651;50.926;4.718;2023-03-04T10:28:16;102558.69;;;7.03;88.32
11190;BME280;5651;50.926;4.718;2023-03-04T10:33:20;102553.09;;;7.15;86.92
11190;BME280;5651;50.926;4.718;2023-03-04T10:35:52;102557.63;;;7.21;85.80
11190;BME280;5651;50.926;4.718;2023-03-04T10:38:21;102544.06;;;7.28;85.06
11190;BME280;5651;50.926;4.718;2023-03-04T10:40:47;102541.53;;;7.29;85.28
11190;BME280;5651;50.926;4.718;2023-03-04T10:43:16;102538.84;;;7.26;86.95
11190;BME280;5651;50.926;4.718;2023-03-04T10:45:42;102543.28;;;7.30;86.84
11190;BME280;5651;50.926;4.718;2023-03-04T10:48:18;102545.50;;;7.44;85.59
11190;BME280;5651;50.926;4.718;2023-03-04T10:50:44;102544.50;;;7.40;86.71
11190;BME280;5651;50.926;4.718;2023-03-04T10:53:30;102541.72;;;7.58;83.83
11190;BME280;5651;50.926;4.718;2023-03-04T10:55:58;102540.03;;;7.60;83.09
11190;BME280;5651;50.926;4.718;2023-03-04T10:58:24;102538.44;;;7.64;83.68
11190;BME280;5651;50.926;4.718;2023-03-04T11:01:05;102541.94;;;7.65;83.87
11190;BME280;5651;50.926;4.718;2023-03-04T11:03:33;102533.38;;;7.67;83.72
11190;BME280;5651;50.926;4.718;2023-03-04T11:06:10;102531.47;;;7.87;81.79
11190;BME280;5651;50.926;4.718;2023-03-04T11:08:39;102528.13;;;7.91;82.13
11190;BME280;5651;50.926;4.718;2023-03-04T11:13:58;102527.75;;;8.06;82.89
11190;BME280;5651;50.926;4.718;2023-03-04T11:16:27;102527.56;;;8.28;80.22
11190;BME280;5651;50.926;4.718;2023-03-04T11:19:15;102522.97;;;8.19;83.64
11190;BME280;5651;50.926;4.718;2023-03-04T11:21:42;102516.41;;;8.30;82.70
11190;BME280;5651;50.926;4.718;2023-03-04T11:24:27;102520.38;;;8.46;81.28
11190;BME280;5651;50.926;4.718;2023-03-04T11:27:17;102512.19;;;8.61;81.05
11190;BME280;5651;50.926;4.718;2023-03-04T11:30:03;102501.69;;;8.56;82.10
11190;BME280;5651;50.926;4.718;2023-03-04T11:32:40;102498.44;;;8.64;82.25
11190;BME280;5651;50.926;4.718;2023-03-04T11:35:27;102496.88;;;8.70;81.40
11190;BME280;5651;50.926;4.718;2023-03-04T11:40:40;102500.84;;;8.86;82.49
11190;BME280;5651;50.926;4.718;2023-03-04T11:43:18;102486.44;;;8.99;81.98
11190;BME280;5651;50.926;4.718;2023-03-04T11:45:58;102485.03;;;9.11;81.32
11190;BME280;5651;50.926;4.718;2023-03-04T12:05:45;102454.72;;;9.78;76.90
11190;BME280;5651;50.926;4.718;2023-03-04T12:11:02;102456.09;;;9.64;75.31
11190;BME280;5651;50.926;4.718;2023-03-04T12:27:23;102438.25;;;9.11;74.81
11190;BME280;5651;50.926;4.718;2023-03-04T12:29:59;102438.69;;;8.96;75.72
11190;BME280;5651;50.926;4.718;2023-03-04T12:35:24;102435.19;;;8.94;75.11
11190;BME280;5651;50.926;4.718;2023-03-04T12:41:17;102433.94;;;8.81;74.93
11190;BME280;5651;50.926;4.718;2023-03-04T12:43:53;102431.88;;;8.69;76.29
11190;BME280;5651;50.926;4.718;2023-03-04T12:55:22;102413.28;;;8.55;77.67
11190;BME280;5651;50.926;4.718;2023-03-04T12:57:54;102412.47;;;8.57;77.42
11190;BME280;5651;50.926;4.718;2023-03-04T13:02:58;102407.16;;;8.53;77.94
11190;BME280;5651;50.926;4.718;2023-03-04T13:05:55;102401.31;;;8.60;78.67
11190;BME280;5651;50.926;4.718;2023-03-04T13:08:31;102398.34;;;8.78;77.09
11190;BME280;5651;50.926;4.718;2023-03-04T13:16:46;102391.13;;;8.98;75.94
11190;BME280;5651;50.926;4.718;2023-03-04T13:22:45;102387.03;;;9.08;75.64
11190;BME280;5651;50.926;4.718;2023-03-04T13:28:14;102380.34;;;9.18;75.78
11190;BME280;5651;50.926;4.718;2023-03-04T13:41:23;102378.69;;;9.20;76.00
11190;BME280;5651;50.926;4.718;2023-03-04T13:44:00;102376.78;;;9.14;76.06
11190;BME280;5651;50.926;4.718;2023-03-04T13:56:37;102359.81;;;8.95;75.84
11190;BME280;5651;50.926;4.718;2023-03-04T14:01:36;102369.03;;;8.84;78.23
11190;BME280;5651;50.926;4.718;2023-03-04T14:04:17;102364.03;;;8.90;77.32
11190;BME280;5651;50.926;4.718;2023-03-04T14:06:45;102355.16;;;8.83;78.98
11190;BME280;5651;50.926;4.718;2023-03-04T14:09:13;102361.50;;;8.93;76.77
11190;BME280;5651;50.926;4.718;2023-03-04T14:11:40;102353.41;;;8.82;78.61
11190;BME280;5651;50.926;4.718;2023-03-04T14:14:11;102356.63;;;8.74;78.63
11190;BME280;5651;50.926;4.718;2023-03-04T14:16:43;102358.66;;;8.52;80.77
11190;BME280;5651;50.926;4.718;2023-03-04T14:19:29;102352.72;;;8.57;79.52
11190;BME280;5651;50.926;4.718;2023-03-04T14:21:58;102355.41;;;8.61;79.04
11190;BME280;5651;50.926;4.718;2023-03-04T14:24:24;102347.66;;;8.62;78.86
11190;BME280;5651;50.926;4.718;2023-03-04T14:27:09;102345.06;;;8.62;78.35
11190;BME280;5651;50.926;4.718;2023-03-04T14:29:36;102336.25;;;8.57;78.40
11190;BME280;5651;50.926;4.718;2023-03-04T14:32:03;102339.69;;;8.56;78.98
11190;BME280;5651;50.926;4.718;2023-03-04T14:34:32;102327.69;;;8.61;78.54
11190;BME280;5651;50.926;4.718;2023-03-04T14:37:00;102315.56;;;8.60;78.23
11190;BME280;5651;50.926;4.718;2023-03-04T14:39:29;102320.81;;;8.62;78.21
11190;BME280;5651;50.926;4.718;2023-03-04T14:42:03;102330.19;;;8.56;79.87
11190;BME280;5651;50.926;4.718;2023-03-04T14:44:44;102326.69;;;8.56;80.37
11190;BME280;5651;50.926;4.718;2023-03-04T14:49:42;102316.69;;;8.70;79.11
11190;BME280;5651;50.926;4.718;2023-03-04T14:55:14;102312.50;;;8.75;80.09
11190;BME280;5651;50.926;4.718;2023-03-04T14:57:42;102308.06;;;8.71;80.53
11190;BME280;5651;50.926;4.718;2023-03-04T15:02:51;102299.66;;;8.81;78.23
11190;BME280;5651;50.926;4.718;2023-03-04T15:05:27;102301.66;;;8.92;77.90
11190;BME280;5651;50.926;4.718;2023-03-04T15:10:42;102298.00;;;8.85;78.21
11190;BME280;5651;50.926;4.718;2023-03-04T15:13:42;102290.88;;;8.76;79.47
11190;BME280;5651;50.926;4.718;2023-03-04T15:16:09;102292.38;;;8.68;80.91